createdAt,value
2022-08-16T00:01:24.692Z,20.10
2022-08-16T00:03:54.465Z,20.00
2022-08-16T00:06:22.578Z,20.00
2022-08-16T00:08:50.474Z,20.00
2022-08-16T00:11:21.221Z,19.90
2022-08-16T00:13:54.106Z,19.90
2022-08-16T00:16:57.905Z,19.90
2022-08-16T00:19:15.240Z,19.80
2022-08-16T00:21:43.783Z,19.80
2022-08-16T00:24:12.699Z,19.80
2022-08-16T00:26:45.149Z,19.80
2022-08-16T00:29:17.232Z,19.80
2022-08-16T00:32:01.115Z,19.70
2022-08-16T00:34:52.211Z,19.70
2022-08-16T00:37:58.334Z,19.70
2022-08-16T00:40:34.363Z,19.60
2022-08-16T00:43:19.017Z,19.60
2022-08-16T00:46:22.463Z,19.60
2022-08-16T00:48:58.787Z,19.60
2022-08-16T00:51:29.417Z,19.50
2022-08-16T00:53:59.227Z,19.50
2022-08-16T00:56:57.844Z,19.50
2022-08-16T00:59:26.265Z,19.50
2022-08-16T01:01:54.711Z,19.50
2022-08-16T01:04:30.620Z,19.40
2022-08-16T01:07:06.697Z,19.40
2022-08-16T01:09:43.012Z,19.40
2022-08-16T01:12:11.431Z,19.40
2022-08-16T01:14:59.865Z,19.40
2022-08-16T01:17:29.551Z,19.40
2022-08-16T01:20:23.974Z,19.40
2022-08-16T01:23:17.171Z,19.30
2022-08-16T01:26:00.158Z,19.30
2022-08-16T01:28:38.963Z,19.40
2022-08-16T01:31:15.193Z,19.30
2022-08-16T01:33:43.236Z,19.30
2022-08-16T01:36:13.164Z,19.30
2022-08-16T01:38:51.201Z,19.30
2022-08-16T01:41:30.637Z,19.30
2022-08-16T01:44:01.656Z,19.30
2022-08-16T01:46:46.222Z,19.30
2022-08-16T01:49:43.080Z,19.30
2022-08-16T01:52:29.341Z,19.30
2022-08-16T01:55:05.603Z,19.20
2022-08-16T01:57:35.614Z,19.20
2022-08-16T02:00:19.302Z,19.20
2022-08-16T02:02:52.126Z,19.20
2022-08-16T02:05:23.612Z,19.20
2022-08-16T02:07:51.910Z,19.20
2022-08-16T02:10:20.777Z,19.20
2022-08-16T02:12:55.888Z,19.20
2022-08-16T02:15:35.293Z,19.20
2022-08-16T02:18:04.216Z,19.10
2022-08-16T02:20:42.646Z,19.10
2022-08-16T02:23:13.832Z,19.10
2022-08-16T02:25:52.445Z,19.10
2022-08-16T02:28:24.291Z,19.10
2022-08-16T02:30:53.700Z,19.10
2022-08-16T02:33:24.343Z,19.10
2022-08-16T02:35:58.357Z,19.10
2022-08-16T02:38:31.539Z,19.10
2022-08-16T02:41:02.269Z,19.00
2022-08-16T02:43:36.214Z,19.00
2022-08-16T02:46:10.281Z,19.00
2022-08-16T02:48:39.665Z,19.00
2022-08-16T02:51:17.675Z,19.00
2022-08-16T02:53:48.416Z,18.90
2022-08-16T02:56:18.638Z,18.90
2022-08-16T02:58:49.216Z,18.90
2022-08-16T03:01:25.035Z,18.90
2022-08-16T03:04:28.769Z,18.90
2022-08-16T03:06:56.834Z,18.90
2022-08-16T03:09:45.667Z,18.90
2022-08-16T03:12:17.728Z,18.80
2022-08-16T03:14:46.579Z,18.80
2022-08-16T03:17:15.131Z,18.80
2022-08-16T03:19:48.477Z,18.80
2022-08-16T03:22:28.875Z,18.80
2022-08-16T03:25:09.466Z,18.70
2022-08-16T03:27:41.144Z,18.70
2022-08-16T03:30:20.030Z,18.70
2022-08-16T03:32:52.558Z,18.70
2022-08-16T03:35:32.606Z,18.70
2022-08-16T03:38:32.627Z,18.60
2022-08-16T03:41:17.031Z,18.60
2022-08-16T03:43:56.088Z,18.60
2022-08-16T03:46:47.337Z,18.60
2022-08-16T03:49:17.999Z,18.60
2022-08-16T03:51:47.828Z,18.50
2022-08-16T03:54:22.321Z,18.50
2022-08-16T03:56:56.761Z,18.50
2022-08-16T03:59:29.418Z,18.50
2022-08-16T04:02:01.190Z,18.50
2022-08-16T04:04:33.036Z,18.40
2022-08-16T04:07:04.242Z,18.40
2022-08-16T04:09:35.448Z,18.40
2022-08-16T04:12:11.147Z,18.40
2022-08-16T04:14:53.432Z,18.40
2022-08-16T04:17:21.737Z,18.30
2022-08-16T04:19:54.671Z,18.30
2022-08-16T04:22:27.686Z,18.30
2022-08-16T04:24:59.702Z,18.30
2022-08-16T04:27:34.599Z,18.30
2022-08-16T04:30:05.045Z,18.30
2022-08-16T04:32:41.751Z,18.20
2022-08-16T04:35:16.594Z,18.20
2022-08-16T04:37:48.672Z,18.20
2022-08-16T04:40:26.908Z,18.20
2022-08-16T04:42:55.659Z,18.20
2022-08-16T04:45:35.606Z,18.20
2022-08-16T04:48:10.386Z,18.20
2022-08-16T04:50:50.453Z,18.20
2022-08-16T04:53:20.794Z,18.10
2022-08-16T04:55:52.994Z,18.10
2022-08-16T04:58:44.251Z,18.10
2022-08-16T05:01:08.882Z,18.20
2022-08-16T05:03:41.926Z,18.20
2022-08-16T05:06:42.155Z,18.30
2022-08-16T05:09:11.694Z,18.30
2022-08-16T05:11:39.026Z,18.40
2022-08-16T05:14:07.503Z,18.40
2022-08-16T05:16:38.696Z,18.50
2022-08-16T05:19:13.300Z,18.50
2022-08-16T05:22:03.568Z,18.60
2022-08-16T05:24:34.438Z,18.60
2022-08-16T05:27:11.478Z,18.70
2022-08-16T05:29:57.065Z,18.70
2022-08-16T05:32:32.481Z,18.80
2022-08-16T05:35:02.920Z,18.80
2022-08-16T05:37:39.918Z,18.80
2022-08-16T05:40:13.135Z,18.90
2022-08-16T05:42:47.640Z,18.90
2022-08-16T05:45:21.878Z,19.00
2022-08-16T05:48:00.336Z,19.00
2022-08-16T05:50:45.161Z,19.10
2022-08-16T05:53:20.486Z,19.20
2022-08-16T05:56:04.776Z,19.20
2022-08-16T05:58:36.695Z,19.30
2022-08-16T06:01:04.638Z,19.40
2022-08-16T06:03:35.021Z,19.50
2022-08-16T06:06:05.785Z,19.50
2022-08-16T06:08:42.155Z,19.60
2022-08-16T06:11:13.710Z,19.70
2022-08-16T06:13:45.539Z,19.80
2022-08-16T06:16:18.890Z,19.90
2022-08-16T06:18:50.530Z,20.00
2022-08-16T06:21:22.728Z,20.10
2022-08-16T06:23:54.667Z,20.20
2022-08-16T06:26:24.011Z,20.30
2022-08-16T06:29:01.880Z,20.40
2022-08-16T06:31:38.410Z,20.50
2022-08-16T06:34:55.969Z,20.60
2022-08-16T06:37:02.526Z,20.70
2022-08-16T06:39:34.317Z,20.90
2022-08-16T06:42:06.692Z,21.00
2022-08-16T06:45:00.256Z,21.20
2022-08-16T06:47:53.412Z,21.30
2022-08-16T06:50:28.972Z,21.50
2022-08-16T06:53:08.787Z,21.60
2022-08-16T06:55:43.038Z,21.80
2022-08-16T06:58:22.760Z,21.90
2022-08-16T07:01:04.291Z,22.10
2022-08-16T07:03:55.172Z,22.30
2022-08-16T07:06:27.743Z,22.40
2022-08-16T07:08:59.718Z,22.60
2022-08-16T07:11:45.950Z,22.70
2022-08-16T07:14:25.091Z,22.90
2022-08-16T07:16:59.400Z,23.00
2022-08-16T07:20:03.648Z,23.10
2022-08-16T07:22:38.742Z,23.30
2022-08-16T07:25:14.562Z,23.40
2022-08-16T07:27:43.976Z,23.60
2022-08-16T07:30:39.618Z,23.70
2022-08-16T07:33:09.299Z,23.90
2022-08-16T07:35:44.541Z,24.00
2022-08-16T07:38:19.730Z,24.20
2022-08-16T07:41:00.165Z,24.30
2022-08-16T07:43:29.919Z,24.40
2022-08-16T07:46:01.547Z,24.60
2022-08-16T07:48:31.403Z,24.70
2022-08-16T07:51:01.575Z,24.80
2022-08-16T07:53:35.079Z,24.90
2022-08-16T07:56:11.239Z,25.10
2022-08-16T07:58:40.017Z,25.20
2022-08-16T08:01:16.515Z,25.30
2022-08-16T08:03:59.053Z,25.40
2022-08-16T08:06:33.104Z,25.60
2022-08-16T08:09:14.543Z,25.70
2022-08-16T08:11:59.504Z,25.80
2022-08-16T08:14:31.287Z,26.00
2022-08-16T08:17:01.775Z,26.10
2022-08-16T08:19:31.207Z,26.20
2022-08-16T08:22:02.507Z,26.30
2022-08-16T08:24:47.321Z,26.40
2022-08-16T08:27:23.013Z,26.50
2022-08-16T08:30:50.074Z,26.70
2022-08-16T08:32:57.726Z,26.80
2022-08-16T08:35:29.130Z,26.90
2022-08-16T08:37:58.843Z,27.00
2022-08-16T08:40:30.082Z,27.10
2022-08-16T08:43:11.398Z,27.20
2022-08-16T08:45:49.229Z,27.40
2022-08-16T08:48:35.051Z,27.40
2022-08-16T08:51:09.914Z,27.50
2022-08-16T08:53:57.910Z,27.60
2022-08-16T08:56:34.806Z,27.80
2022-08-16T08:59:22.322Z,27.90
2022-08-16T09:01:57.639Z,28.00
2022-08-16T09:04:29.587Z,28.10
2022-08-16T09:07:01.357Z,28.20
2022-08-16T09:09:34.315Z,28.30
2022-08-16T09:12:35.899Z,28.50
2022-08-16T09:15:11.518Z,28.60
2022-08-16T09:17:51.809Z,28.70
2022-08-16T09:20:25.547Z,28.80
2022-08-16T09:22:54.466Z,28.90
2022-08-16T09:25:33.710Z,29.00
2022-08-16T09:28:08.984Z,29.20
2022-08-16T09:30:44.344Z,29.30
2022-08-16T09:33:18.505Z,29.30
2022-08-16T09:35:53.670Z,29.40
2022-08-16T09:38:31.803Z,29.50
2022-08-16T09:41:00.871Z,29.60
2022-08-16T09:44:00.211Z,29.70
2022-08-16T09:46:45.844Z,29.80
2022-08-16T09:49:03.523Z,29.90
2022-08-16T09:51:37.182Z,30.00
2022-08-16T09:54:06.224Z,30.10
2022-08-16T09:56:52.081Z,30.20
2022-08-16T09:59:22.655Z,30.30
2022-08-16T10:01:51.017Z,30.40
2022-08-16T10:04:31.348Z,30.50
2022-08-16T10:07:14.736Z,30.60
2022-08-16T10:09:53.897Z,30.70
2022-08-16T10:12:46.157Z,30.80
2022-08-16T10:15:22.210Z,30.90
2022-08-16T10:18:01.348Z,30.90
2022-08-16T10:20:35.655Z,31.10
2022-08-16T10:23:16.981Z,31.20
2022-08-16T10:27:11.322Z,31.30
2022-08-16T10:28:40.243Z,31.40
2022-08-16T10:31:11.938Z,31.40
2022-08-16T10:33:45.151Z,31.50
2022-08-16T10:36:39.378Z,31.40
2022-08-16T10:39:01.981Z,31.50
2022-08-16T10:41:29.089Z,31.50
2022-08-16T10:43:56.749Z,31.40
2022-08-16T10:46:39.482Z,31.40
2022-08-16T10:49:11.895Z,31.40
2022-08-16T10:52:01.454Z,31.40
2022-08-16T10:54:29.578Z,31.50
2022-08-16T10:57:04.495Z,31.50
2022-08-16T10:59:45.776Z,31.60
2022-08-16T11:02:59.115Z,31.70
2022-08-16T11:05:14.390Z,31.80
2022-08-16T11:07:52.059Z,31.90
2022-08-16T11:11:07.057Z,32.10
2022-08-16T11:17:00.703Z,32.40
2022-08-16T11:19:12.501Z,32.50
2022-08-16T11:24:39.566Z,32.70
2022-08-16T11:27:23.337Z,32.80
2022-08-16T11:29:56.621Z,32.90
2022-08-16T11:32:31.638Z,32.90
2022-08-16T11:35:13.373Z,32.90
2022-08-16T11:38:50.707Z,32.80
2022-08-16T11:40:59.472Z,32.80
2022-08-16T11:43:34.561Z,32.90
2022-08-16T11:46:44.795Z,32.90
2022-08-16T11:48:55.588Z,33.00
2022-08-16T11:51:22.897Z,33.00
2022-08-16T11:53:49.945Z,33.10
2022-08-16T11:56:19.756Z,33.10
2022-08-16T11:58:57.170Z,33.00
2022-08-16T12:01:29.900Z,33.00
2022-08-16T12:04:13.454Z,33.00
2022-08-16T12:06:40.733Z,33.10
2022-08-16T12:09:08.305Z,33.10
2022-08-16T12:11:37.630Z,33.20
2022-08-16T12:14:07.488Z,33.30
2022-08-16T12:16:35.567Z,33.40
2022-08-16T12:19:10.360Z,33.50
2022-08-16T12:21:58.681Z,33.70
2022-08-16T12:24:27.119Z,33.80
2022-08-16T12:26:55.475Z,33.90
2022-08-16T12:29:22.712Z,34.00
2022-08-16T12:31:59.105Z,34.00
2022-08-16T12:34:29.479Z,34.00
2022-08-16T12:36:58.140Z,34.00
2022-08-16T12:39:28.823Z,33.90
2022-08-16T12:41:56.660Z,33.90
2022-08-16T12:44:26.316Z,33.90
2022-08-16T12:47:17.045Z,33.90
2022-08-16T12:49:44.206Z,33.90
2022-08-16T12:52:33.808Z,33.90
2022-08-16T12:55:01.454Z,33.90
2022-08-16T12:57:36.710Z,33.80
2022-08-16T13:00:26.908Z,33.70
2022-08-16T13:03:03.767Z,33.60
2022-08-16T13:05:42.916Z,33.50
2022-08-16T13:08:21.408Z,33.50
2022-08-16T13:10:50.730Z,33.40
2022-08-16T13:13:26.739Z,33.30
2022-08-16T13:16:00.888Z,33.20
2022-08-16T13:18:35.992Z,33.20
2022-08-16T13:21:08.697Z,33.10
2022-08-16T13:23:43.778Z,33.00
2022-08-16T13:26:12.693Z,33.00
2022-08-16T13:28:47.653Z,32.90
2022-08-16T13:31:16.248Z,32.90
2022-08-16T13:33:44.346Z,32.90
2022-08-16T13:36:26.330Z,32.90
2022-08-16T13:39:01.375Z,32.90
2022-08-16T13:41:30.086Z,33.00
2022-08-16T13:44:00.366Z,33.10
2022-08-16T13:46:30.160Z,33.10
2022-08-16T13:48:57.817Z,33.10
2022-08-16T13:51:29.065Z,33.10
2022-08-16T13:54:03.783Z,33.00
2022-08-16T13:56:37.953Z,33.00
2022-08-16T13:59:16.525Z,33.00
2022-08-16T14:01:59.485Z,32.90
2022-08-16T14:04:34.196Z,32.90
2022-08-16T14:07:04.760Z,32.90
2022-08-16T14:09:35.103Z,32.90
2022-08-16T14:12:09.802Z,32.90
2022-08-16T14:14:45.045Z,32.90
2022-08-16T14:17:14.693Z,32.90
2022-08-16T14:19:46.248Z,32.90
2022-08-16T14:22:42.589Z,32.90
2022-08-16T14:25:21.831Z,33.00
2022-08-16T14:27:49.677Z,33.10
2022-08-16T14:30:21.895Z,33.20
2022-08-16T14:32:51.368Z,33.30
2022-08-16T14:35:48.455Z,33.40
2022-08-16T14:38:24.060Z,33.60
2022-08-16T14:40:55.389Z,33.70
2022-08-16T14:43:29.707Z,33.90
2022-08-16T14:45:57.917Z,34.00
2022-08-16T14:48:25.879Z,34.10
2022-08-16T14:50:54.749Z,34.20
2022-08-16T14:53:24.409Z,34.30
2022-08-16T14:55:52.118Z,34.30
2022-08-16T14:58:20.227Z,34.40
2022-08-16T15:01:02.064Z,34.50
2022-08-16T15:03:30.269Z,34.60
2022-08-16T15:06:01.853Z,34.70
2022-08-16T15:08:36.549Z,34.80
2022-08-16T15:11:06.097Z,34.90
2022-08-16T15:13:35.401Z,34.90
2022-08-16T15:16:03.851Z,34.90
2022-08-16T15:18:33.772Z,34.90
2022-08-16T15:21:04.676Z,34.90
2022-08-16T15:23:33.867Z,34.80
2022-08-16T15:26:04.182Z,34.70
2022-08-16T15:28:38.417Z,34.60
2022-08-16T15:31:09.843Z,34.50
2022-08-16T15:33:50.006Z,34.40
2022-08-16T15:36:21.325Z,34.40
2022-08-16T15:38:57.436Z,34.30
2022-08-16T15:42:01.150Z,34.20
2022-08-16T15:44:44.156Z,34.20
2022-08-16T15:47:21.627Z,34.10
2022-08-16T15:49:55.776Z,34.10
2022-08-16T15:52:43.388Z,34.00
2022-08-16T15:55:23.910Z,33.90
2022-08-16T15:57:59.769Z,33.80
2022-08-16T16:00:27.439Z,33.80
2022-08-16T16:03:11.534Z,33.70
2022-08-16T16:05:42.683Z,33.60
2022-08-16T16:08:11.832Z,33.60
2022-08-16T16:10:43.228Z,33.50
2022-08-16T16:13:11.310Z,33.50
2022-08-16T16:15:47.150Z,33.40
2022-08-16T16:18:16.229Z,33.40
2022-08-16T16:20:58.199Z,33.30
2022-08-16T16:23:32.057Z,33.30
2022-08-16T16:26:00.691Z,33.30
2022-08-16T16:29:06.376Z,33.20
2022-08-16T16:31:21.912Z,33.20
2022-08-16T16:33:55.731Z,33.10
2022-08-16T16:36:29.359Z,33.10
2022-08-16T16:38:56.930Z,33.00
2022-08-16T16:41:28.053Z,33.00
2022-08-16T16:43:56.886Z,32.90
2022-08-16T16:46:42.803Z,32.90
2022-08-16T16:49:14.044Z,32.80
2022-08-16T16:51:44.846Z,32.80
2022-08-16T16:54:27.425Z,32.80
2022-08-16T16:56:57.714Z,32.70
2022-08-16T16:59:25.501Z,32.70
2022-08-16T17:02:38.694Z,32.60
2022-08-16T17:04:47.477Z,32.60
2022-08-16T17:07:15.373Z,32.60
2022-08-16T17:09:44.218Z,32.50
2022-08-16T17:12:14.588Z,32.50
2022-08-16T17:14:54.939Z,32.50
2022-08-16T17:17:22.480Z,32.40
2022-08-16T17:19:49.872Z,32.40
2022-08-16T17:22:21.072Z,32.40
2022-08-16T17:24:52.371Z,32.40
2022-08-16T17:27:33.020Z,32.30
2022-08-16T17:30:15.935Z,32.30
2022-08-16T17:32:54.348Z,32.20
2022-08-16T17:35:55.137Z,32.10
2022-08-16T17:38:39.195Z,32.10
2022-08-16T17:41:15.544Z,32.10
2022-08-16T17:43:45.011Z,32.00
2022-08-16T17:46:41.356Z,31.90
2022-08-16T17:49:01.451Z,31.90
2022-08-16T17:51:28.514Z,31.80
2022-08-16T17:53:56.509Z,31.80
2022-08-16T17:56:23.469Z,31.70
2022-08-16T17:58:50.435Z,31.70
2022-08-16T18:01:25.596Z,31.60
2022-08-16T18:04:09.049Z,31.60
2022-08-16T18:06:39.629Z,31.50
2022-08-16T18:09:08.502Z,31.40
2022-08-16T18:11:40.729Z,31.40
2022-08-16T18:14:09.763Z,31.30
2022-08-16T18:16:36.725Z,31.20
2022-08-16T18:19:03.679Z,31.10
2022-08-16T18:21:48.862Z,31.10
2022-08-16T18:24:16.458Z,31.00
2022-08-16T18:26:43.327Z,30.90
2022-08-16T18:29:11.434Z,30.80
2022-08-16T18:31:38.608Z,30.70
2022-08-16T18:34:06.003Z,30.60
2022-08-16T18:36:33.355Z,30.50
2022-08-16T18:39:00.737Z,30.40
2022-08-16T18:41:30.275Z,30.30
2022-08-16T18:44:25.387Z,30.20
2022-08-16T18:46:51.002Z,30.10
2022-08-16T18:49:19.216Z,30.00
2022-08-16T18:51:46.507Z,29.90
2022-08-16T18:54:18.157Z,29.90
2022-08-16T18:56:56.052Z,29.80
2022-08-16T18:59:29.354Z,29.70
2022-08-16T19:02:00.181Z,29.60
2022-08-16T19:04:55.122Z,29.50
2022-08-16T19:07:31.090Z,29.40
2022-08-16T19:10:00.926Z,29.30
2022-08-16T19:12:37.781Z,29.20
2022-08-16T19:15:17.846Z,29.10
2022-08-16T19:17:47.296Z,29.00
2022-08-16T19:20:17.989Z,28.90
2022-08-16T19:23:04.657Z,28.80
2022-08-16T19:25:47.225Z,28.60
2022-08-16T19:28:49.792Z,28.50
2022-08-16T19:31:15.767Z,28.30
2022-08-16T19:33:53.288Z,28.30
2022-08-16T19:36:32.104Z,28.20
2022-08-16T19:39:13.694Z,28.00
2022-08-16T19:41:52.959Z,27.90
2022-08-16T19:44:21.423Z,27.80
2022-08-16T19:46:49.648Z,27.70
2022-08-16T19:49:17.058Z,27.60
2022-08-16T19:51:46.197Z,27.50
2022-08-16T19:54:13.485Z,27.40
2022-08-16T19:56:40.530Z,27.30
2022-08-16T19:59:40.008Z,27.20
2022-08-16T20:01:54.640Z,27.10
2022-08-16T20:04:23.791Z,27.00
2022-08-16T20:06:52.854Z,26.90
2022-08-16T20:09:22.397Z,26.80
2022-08-16T20:11:55.321Z,26.80
2022-08-16T20:14:25.703Z,26.70
2022-08-16T20:16:59.509Z,26.50
2022-08-16T20:19:36.326Z,26.50
2022-08-16T20:22:42.238Z,26.30
2022-08-16T20:25:14.078Z,26.30
2022-08-16T20:27:42.595Z,26.20
2022-08-16T20:30:14.031Z,26.10
2022-08-16T20:32:42.439Z,26.10
2022-08-16T20:35:12.538Z,26.00
2022-08-16T20:37:42.412Z,25.90
2022-08-16T20:40:33.905Z,25.80
2022-08-16T20:43:12.850Z,25.70
2022-08-16T20:45:43.755Z,25.60
2022-08-16T20:48:11.182Z,25.60
2022-08-16T20:50:39.123Z,25.50
2022-08-16T20:53:07.034Z,25.40
2022-08-16T20:55:39.901Z,25.40
2022-08-16T20:58:07.638Z,25.30
2022-08-16T21:00:35.021Z,25.20
2022-08-16T21:03:08.724Z,25.20
2022-08-16T21:05:36.008Z,25.10
2022-08-16T21:08:52.468Z,25.00
2022-08-16T21:10:52.518Z,24.90
2022-08-16T21:13:20.984Z,24.90
2022-08-16T21:15:49.126Z,24.80
2022-08-16T21:18:16.181Z,24.80
2022-08-16T21:20:43.354Z,24.70
2022-08-16T21:23:11.258Z,24.70
2022-08-16T21:25:58.527Z,24.60
2022-08-16T21:28:42.085Z,24.50
2022-08-16T21:31:13.021Z,24.50
2022-08-16T21:33:40.089Z,24.40
2022-08-16T21:36:07.590Z,24.40
2022-08-16T21:38:34.847Z,24.30
2022-08-16T21:41:04.827Z,24.30
2022-08-16T21:43:33.465Z,24.20
2022-08-16T21:46:03.446Z,24.20
2022-08-16T21:48:34.844Z,24.10
2022-08-16T21:51:10.653Z,24.00
2022-08-16T21:53:37.983Z,24.00
2022-08-16T21:56:06.103Z,23.90
2022-08-16T21:58:33.443Z,23.90
2022-08-16T22:01:01.728Z,23.80
2022-08-16T22:03:32.944Z,23.80
2022-08-16T22:06:13.394Z,23.70
2022-08-16T22:08:50.347Z,23.60
2022-08-16T22:11:25.677Z,23.60
2022-08-16T22:13:57.555Z,23.50
2022-08-16T22:16:33.698Z,23.50
2022-08-16T22:19:01.852Z,23.40
2022-08-16T22:21:30.792Z,23.40
2022-08-16T22:23:58.998Z,23.30
2022-08-16T22:26:34.031Z,23.30
2022-08-16T22:29:15.046Z,23.20
2022-08-16T22:31:44.328Z,23.20
2022-08-16T22:34:12.483Z,23.10
2022-08-16T22:36:40.511Z,23.10
2022-08-16T22:39:12.002Z,23.00
2022-08-16T22:41:42.008Z,23.00
2022-08-16T22:44:09.805Z,22.90
2022-08-16T22:46:38.381Z,22.90
2022-08-16T22:49:07.463Z,22.90
2022-08-16T22:51:36.102Z,22.80
2022-08-16T22:54:44.312Z,22.80
2022-08-16T22:56:50.909Z,22.70
2022-08-16T22:59:17.756Z,22.70
2022-08-16T23:01:45.135Z,22.70
2022-08-16T23:04:12.195Z,22.60
2022-08-16T23:06:39.248Z,22.60
2022-08-16T23:09:06.116Z,22.60
2022-08-16T23:11:33.037Z,22.50
2022-08-16T23:14:00.134Z,22.50
2022-08-16T23:16:33.273Z,22.40
2022-08-16T23:19:04.225Z,22.40
2022-08-16T23:21:32.767Z,22.40
2022-08-16T23:24:00.206Z,22.30
2022-08-16T23:26:44.395Z,22.30
2022-08-16T23:29:23.900Z,22.20
2022-08-16T23:31:59.364Z,22.20
2022-08-16T23:34:28.647Z,22.20
2022-08-16T23:36:56.433Z,22.10
2022-08-16T23:39:25.039Z,22.10
2022-08-16T23:41:52.410Z,22.10
2022-08-16T23:44:55.274Z,22.00
2022-08-16T23:47:07.458Z,22.00
2022-08-16T23:50:01.087Z,21.90
2022-08-16T23:52:39.398Z,21.90
2022-08-16T23:55:09.876Z,21.90
2022-08-16T23:57:37.563Z,21.80
